sensor_id;sensor_type;location;lat;lon;timestamp;P1;durP1;ratioP1;P2;durP2;ratioP2
59169;SDS011;52474;52.236;5.114;2024-01-10T00:01:42;5.55;;;3.17;;
59169;SDS011;52474;52.236;5.114;2024-01-10T00:04:08;6.38;;;3.42;;
59169;SDS011;52474;52.236;5.114;2024-01-10T00:06:34;5.50;;;3.30;;
59169;SDS011;52474;52.236;5.114;2024-01-10T00:08:59;7.43;;;3.38;;
59169;SDS011;52474;52.236;5.114;2024-01-10T00:11:25;6.82;;;3.67;;
59169;SDS011;52474;52.236;5.114;2024-01-10T00:13:50;8.35;;;3.33;;
59169;SDS011;52474;52.236;5.114;2024-01-10T00:16:17;5.35;;;3.33;;
59169;SDS011;52474;52.236;5.114;2024-01-10T00:18:42;7.80;;;3.63;;
59169;SDS011;52474;52.236;5.114;2024-01-10T00:21:08;5.72;;;3.72;;
59169;SDS011;52474;52.236;5.114;2024-01-10T00:23:33;7.53;;;3.20;;
59169;SDS011;52474;52.236;5.114;2024-01-10T00:25:59;9.73;;;4.15;;
59169;SDS011;52474;52.236;5.114;2024-01-10T00:28:25;4.60;;;3.00;;
59169;SDS011;52474;52.236;5.114;2024-01-10T00:30:51;7.20;;;3.97;;
59169;SDS011;52474;52.236;5.114;2024-01-10T00:33:17;6.80;;;3.85;;
59169;SDS011;52474;52.236;5.114;2024-01-10T00:35:43;5.97;;;3.00;;
59169;SDS011;52474;52.236;5.114;2024-01-10T00:38:08;8.02;;;3.97;;
59169;SDS011;52474;52.236;5.114;2024-01-10T00:40:34;8.82;;;3.97;;
59169;SDS011;52474;52.236;5.114;2024-01-10T00:43:00;6.65;;;2.83;;
59169;SDS011;52474;52.236;5.114;2024-01-10T00:45:27;6.18;;;3.67;;
59169;SDS011;52474;52.236;5.114;2024-01-10T00:47:52;8.63;;;3.90;;
59169;SDS011;52474;52.236;5.114;2024-01-10T00:50:18;8.75;;;3.95;;
59169;SDS011;52474;52.236;5.114;2024-01-10T00:52:44;6.80;;;3.88;;
59169;SDS011;52474;52.236;5.114;2024-01-10T00:55:10;8.27;;;4.63;;
59169;SDS011;52474;52.236;5.114;2024-01-10T00:57:36;6.85;;;3.75;;
59169;SDS011;52474;52.236;5.114;2024-01-10T01:00:07;8.02;;;3.67;;
59169;SDS011;52474;52.236;5.114;2024-01-10T01:02:34;9.13;;;4.20;;
59169;SDS011;52474;52.236;5.114;2024-01-10T01:05:00;6.03;;;3.17;;
59169;SDS011;52474;52.236;5.114;2024-01-10T01:07:26;6.00;;;3.30;;
59169;SDS011;52474;52.236;5.114;2024-01-10T01:09:52;8.38;;;4.38;;
59169;SDS011;52474;52.236;5.114;2024-01-10T01:12:17;9.00;;;4.03;;
59169;SDS011;52474;52.236;5.114;2024-01-10T01:14:43;8.30;;;4.18;;
59169;SDS011;52474;52.236;5.114;2024-01-10T01:17:09;7.57;;;3.97;;
59169;SDS011;52474;52.236;5.114;2024-01-10T01:19:34;6.93;;;4.13;;
59169;SDS011;52474;52.236;5.114;2024-01-10T01:22:00;5.65;;;3.78;;
59169;SDS011;52474;52.236;5.114;2024-01-10T01:24:26;8.50;;;4.38;;
59169;SDS011;52474;52.236;5.114;2024-01-10T01:26:51;8.18;;;4.40;;
59169;SDS011;52474;52.236;5.114;2024-01-10T01:29:17;6.80;;;4.38;;
59169;SDS011;52474;52.236;5.114;2024-01-10T01:31:44;9.00;;;4.05;;
59169;SDS011;52474;52.236;5.114;2024-01-10T01:34:10;9.23;;;4.88;;
59169;SDS011;52474;52.236;5.114;2024-01-10T01:36:35;7.57;;;4.72;;
59169;SDS011;52474;52.236;5.114;2024-01-10T01:39:01;10.40;;;5.15;;
59169;SDS011;52474;52.236;5.114;2024-01-10T01:41:27;10.88;;;4.68;;
59169;SDS011;52474;52.236;5.114;2024-01-10T01:43:52;8.35;;;3.90;;
59169;SDS011;52474;52.236;5.114;2024-01-10T01:46:18;9.00;;;5.18;;
59169;SDS011;52474;52.236;5.114;2024-01-10T01:48:43;7.63;;;5.18;;
59169;SDS011;52474;52.236;5.114;2024-01-10T01:51:11;8.95;;;4.47;;
59169;SDS011;52474;52.236;5.114;2024-01-10T01:53:38;8.60;;;5.15;;
59169;SDS011;52474;52.236;5.114;2024-01-10T01:56:05;9.02;;;5.07;;
59169;SDS011;52474;52.236;5.114;2024-01-10T01:58:32;10.38;;;5.35;;
59169;SDS011;52474;52.236;5.114;2024-01-10T02:00:59;10.75;;;5.43;;
59169;SDS011;52474;52.236;5.114;2024-01-10T02:03:25;12.50;;;5.90;;
59169;SDS011;52474;52.236;5.114;2024-01-10T02:05:51;9.05;;;5.35;;
59169;SDS011;52474;52.236;5.114;2024-01-10T02:08:17;10.55;;;5.63;;
59169;SDS011;52474;52.236;5.114;2024-01-10T02:10:43;10.93;;;5.68;;
59169;SDS011;52474;52.236;5.114;2024-01-10T02:13:08;10.25;;;5.30;;
59169;SDS011;52474;52.236;5.114;2024-01-10T02:15:37;7.00;;;4.22;;
59169;SDS011;52474;52.236;5.114;2024-01-10T02:18:04;10.45;;;5.68;;
59169;SDS011;52474;52.236;5.114;2024-01-10T02:20:32;8.57;;;4.35;;
59169;SDS011;52474;52.236;5.114;2024-01-10T02:22:58;13.23;;;6.22;;
59169;SDS011;52474;52.236;5.114;2024-01-10T02:25:24;6.22;;;3.72;;
59169;SDS011;52474;52.236;5.114;2024-01-10T02:27:49;9.90;;;5.47;;
59169;SDS011;52474;52.236;5.114;2024-01-10T02:30:15;9.23;;;5.63;;
59169;SDS011;52474;52.236;5.114;2024-01-10T02:32:41;7.78;;;5.25;;
59169;SDS011;52474;52.236;5.114;2024-01-10T02:35:06;10.18;;;5.65;;
59169;SDS011;52474;52.236;5.114;2024-01-10T02:37:33;9.10;;;5.30;;
59169;SDS011;52474;52.236;5.114;2024-01-10T02:39:59;8.95;;;5.07;;
59169;SDS011;52474;52.236;5.114;2024-01-10T02:42:25;11.65;;;6.35;;
59169;SDS011;52474;52.236;5.114;2024-01-10T02:44:52;9.35;;;5.05;;
59169;SDS011;52474;52.236;5.114;2024-01-10T02:47:18;12.68;;;5.80;;
59169;SDS011;52474;52.236;5.114;2024-01-10T02:49:44;9.27;;;5.72;;
59169;SDS011;52474;52.236;5.114;2024-01-10T02:52:09;9.40;;;5.43;;
59169;SDS011;52474;52.236;5.114;2024-01-10T02:54:35;9.18;;;5.32;;
59169;SDS011;52474;52.236;5.114;2024-01-10T02:57:00;7.63;;;4.63;;
59169;SDS011;52474;52.236;5.114;2024-01-10T02:59:26;8.70;;;5.75;;
59169;SDS011;52474;52.236;5.114;2024-01-10T03:01:52;10.68;;;5.45;;
59169;SDS011;52474;52.236;5.114;2024-01-10T03:04:17;12.80;;;6.85;;
59169;SDS011;52474;52.236;5.114;2024-01-10T03:06:43;11.18;;;5.63;;
59169;SDS011;52474;52.236;5.114;2024-01-10T03:09:09;8.10;;;5.38;;
59169;SDS011;52474;52.236;5.114;2024-01-10T03:11:34;9.65;;;5.40;;
59169;SDS011;52474;52.236;5.114;2024-01-10T03:14:07;10.48;;;5.57;;
59169;SDS011;52474;52.236;5.114;2024-01-10T03:16:34;8.50;;;5.07;;
59169;SDS011;52474;52.236;5.114;2024-01-10T03:19:00;11.68;;;5.95;;
59169;SDS011;52474;52.236;5.114;2024-01-10T03:21:26;13.55;;;6.28;;
59169;SDS011;52474;52.236;5.114;2024-01-10T03:23:52;9.55;;;5.93;;
59169;SDS011;52474;52.236;5.114;2024-01-10T03:26:20;11.05;;;6.38;;
59169;SDS011;52474;52.236;5.114;2024-01-10T03:28:45;10.45;;;5.78;;
59169;SDS011;52474;52.236;5.114;2024-01-10T03:31:11;11.38;;;6.22;;
59169;SDS011;52474;52.236;5.114;2024-01-10T03:33:37;10.32;;;5.63;;
59169;SDS011;52474;52.236;5.114;2024-01-10T03:36:04;7.93;;;4.35;;
59169;SDS011;52474;52.236;5.114;2024-01-10T03:38:30;12.40;;;5.80;;
59169;SDS011;52474;52.236;5.114;2024-01-10T03:40:56;11.10;;;5.60;;
59169;SDS011;52474;52.236;5.114;2024-01-10T03:43:22;9.75;;;5.60;;
59169;SDS011;52474;52.236;5.114;2024-01-10T03:45:48;10.13;;;5.28;;
59169;SDS011;52474;52.236;5.114;2024-01-10T03:48:13;12.00;;;5.38;;
59169;SDS011;52474;52.236;5.114;2024-01-10T03:50:39;9.30;;;5.80;;
59169;SDS011;52474;52.236;5.114;2024-01-10T03:53:04;10.90;;;5.93;;
59169;SDS011;52474;52.236;5.114;2024-01-10T03:55:31;8.35;;;5.35;;
59169;SDS011;52474;52.236;5.114;2024-01-10T03:57:57;11.88;;;5.53;;
59169;SDS011;52474;52.236;5.114;2024-01-10T04:00:22;9.65;;;4.55;;
59169;SDS011;52474;52.236;5.114;2024-01-10T04:02:48;12.48;;;6.13;;
59169;SDS011;52474;52.236;5.114;2024-01-10T04:05:13;8.93;;;4.47;;
59169;SDS011;52474;52.236;5.114;2024-01-10T04:07:40;11.45;;;5.38;;
59169;SDS011;52474;52.236;5.114;2024-01-10T04:10:12;8.00;;;5.10;;
59169;SDS011;52474;52.236;5.114;2024-01-10T04:12:45;9.00;;;5.10;;
59169;SDS011;52474;52.236;5.114;2024-01-10T04:15:11;7.60;;;5.03;;
59169;SDS011;52474;52.236;5.114;2024-01-10T04:17:39;11.73;;;5.65;;
59169;SDS011;52474;52.236;5.114;2024-01-10T04:20:05;8.57;;;4.95;;
59169;SDS011;52474;52.236;5.114;2024-01-10T04:22:31;10.30;;;5.72;;
59169;SDS011;52474;52.236;5.114;2024-01-10T04:24:58;11.90;;;5.18;;
59169;SDS011;52474;52.236;5.114;2024-01-10T04:27:25;9.15;;;5.30;;
59169;SDS011;52474;52.236;5.114;2024-01-10T04:29:50;9.05;;;5.25;;
59169;SDS011;52474;52.236;5.114;2024-01-10T04:32:16;9.82;;;5.40;;
59169;SDS011;52474;52.236;5.114;2024-01-10T04:34:41;10.80;;;5.55;;
59169;SDS011;52474;52.236;5.114;2024-01-10T04:37:07;9.77;;;5.78;;
59169;SDS011;52474;52.236;5.114;2024-01-10T04:39:36;9.55;;;6.05;;
59169;SDS011;52474;52.236;5.114;2024-01-10T04:44:29;8.57;;;4.63;;
59169;SDS011;52474;52.236;5.114;2024-01-10T04:46:55;9.35;;;5.15;;
59169;SDS011;52474;52.236;5.114;2024-01-10T04:49:20;9.48;;;5.15;;
59169;SDS011;52474;52.236;5.114;2024-01-10T04:51:46;8.77;;;5.78;;
59169;SDS011;52474;52.236;5.114;2024-01-10T04:54:13;11.13;;;6.70;;
59169;SDS011;52474;52.236;5.114;2024-01-10T04:56:38;8.93;;;4.82;;
59169;SDS011;52474;52.236;5.114;2024-01-10T04:59:04;10.32;;;5.00;;
59169;SDS011;52474;52.236;5.114;2024-01-10T05:01:30;11.70;;;5.75;;
59169;SDS011;52474;52.236;5.114;2024-01-10T05:03:57;10.70;;;6.47;;
59169;SDS011;52474;52.236;5.114;2024-01-10T05:06:22;8.68;;;4.55;;
59169;SDS011;52474;52.236;5.114;2024-01-10T05:08:48;9.95;;;6.00;;
59169;SDS011;52474;52.236;5.114;2024-01-10T05:11:14;8.23;;;5.10;;
59169;SDS011;52474;52.236;5.114;2024-01-10T05:13:41;9.48;;;5.45;;
59169;SDS011;52474;52.236;5.114;2024-01-10T05:16:07;8.93;;;5.22;;
59169;SDS011;52474;52.236;5.114;2024-01-10T05:18:32;12.40;;;5.68;;
59169;SDS011;52474;52.236;5.114;2024-01-10T05:20:58;9.27;;;4.75;;
59169;SDS011;52474;52.236;5.114;2024-01-10T05:23:25;9.18;;;5.47;;
59169;SDS011;52474;52.236;5.114;2024-01-10T05:25:50;7.57;;;4.85;;
59169;SDS011;52474;52.236;5.114;2024-01-10T05:28:16;9.00;;;4.43;;
59169;SDS011;52474;52.236;5.114;2024-01-10T05:30:43;10.98;;;5.03;;
59169;SDS011;52474;52.236;5.114;2024-01-10T05:33:09;10.10;;;6.03;;
59169;SDS011;52474;52.236;5.114;2024-01-10T05:35:36;9.48;;;5.60;;
59169;SDS011;52474;52.236;5.114;2024-01-10T05:38:03;8.93;;;4.95;;
59169;SDS011;52474;52.236;5.114;2024-01-10T05:40:29;10.90;;;5.65;;
59169;SDS011;52474;52.236;5.114;2024-01-10T05:42:58;9.70;;;5.15;;
59169;SDS011;52474;52.236;5.114;2024-01-10T05:45:26;11.30;;;5.32;;
59169;SDS011;52474;52.236;5.114;2024-01-10T05:47:52;10.63;;;6.10;;
59169;SDS011;52474;52.236;5.114;2024-01-10T05:50:18;10.32;;;5.35;;
59169;SDS011;52474;52.236;5.114;2024-01-10T05:52:43;10.90;;;5.22;;
59169;SDS011;52474;52.236;5.114;2024-01-10T05:55:09;9.05;;;5.20;;
59169;SDS011;52474;52.236;5.114;2024-01-10T05:57:36;10.32;;;4.65;;
59169;SDS011;52474;52.236;5.114;2024-01-10T06:00:02;10.38;;;5.57;;
59169;SDS011;52474;52.236;5.114;2024-01-10T06:02:30;10.15;;;6.05;;
59169;SDS011;52474;52.236;5.114;2024-01-10T06:04:56;12.48;;;6.10;;
59169;SDS011;52474;52.236;5.114;2024-01-10T06:07:22;10.35;;;4.90;;
59169;SDS011;52474;52.236;5.114;2024-01-10T06:09:47;11.23;;;6.15;;
59169;SDS011;52474;52.236;5.114;2024-01-10T06:12:13;8.32;;;5.47;;
59169;SDS011;52474;52.236;5.114;2024-01-10T06:14:39;8.25;;;5.00;;
59169;SDS011;52474;52.236;5.114;2024-01-10T06:17:05;9.55;;;5.45;;
59169;SDS011;52474;52.236;5.114;2024-01-10T06:19:31;9.63;;;5.75;;
59169;SDS011;52474;52.236;5.114;2024-01-10T06:21:57;8.88;;;5.68;;
59169;SDS011;52474;52.236;5.114;2024-01-10T06:24:24;8.77;;;5.50;;
59169;SDS011;52474;52.236;5.114;2024-01-10T06:26:50;8.05;;;5.80;;
59169;SDS011;52474;52.236;5.114;2024-01-10T06:29:16;8.73;;;6.05;;
59169;SDS011;52474;52.236;5.114;2024-01-10T06:31:42;9.75;;;5.35;;
59169;SDS011;52474;52.236;5.114;2024-01-10T06:34:08;13.38;;;6.38;;
59169;SDS011;52474;52.236;5.114;2024-01-10T06:36:34;11.48;;;5.85;;
59169;SDS011;52474;52.236;5.114;2024-01-10T06:39:00;8.73;;;5.70;;
59169;SDS011;52474;52.236;5.114;2024-01-10T06:41:26;9.35;;;4.35;;
59169;SDS011;52474;52.236;5.114;2024-01-10T06:43:52;9.43;;;4.95;;
59169;SDS011;52474;52.236;5.114;2024-01-10T06:46:18;9.35;;;5.15;;
59169;SDS011;52474;52.236;5.114;2024-01-10T06:48:44;10.10;;;4.88;;
59169;SDS011;52474;52.236;5.114;2024-01-10T06:51:10;10.13;;;5.65;;
59169;SDS011;52474;52.236;5.114;2024-01-10T06:53:37;10.25;;;5.13;;
59169;SDS011;52474;52.236;5.114;2024-01-10T06:56:03;10.73;;;5.85;;
59169;SDS011;52474;52.236;5.114;2024-01-10T06:58:29;9.82;;;5.38;;
59169;SDS011;52474;52.236;5.114;2024-01-10T07:00:55;10.65;;;5.03;;
59169;SDS011;52474;52.236;5.114;2024-01-10T07:03:20;10.80;;;4.90;;
59169;SDS011;52474;52.236;5.114;2024-01-10T07:05:46;9.93;;;5.00;;
59169;SDS011;52474;52.236;5.114;2024-01-10T07:08:11;9.07;;;5.00;;
59169;SDS011;52474;52.236;5.114;2024-01-10T07:10:37;8.20;;;5.40;;
59169;SDS011;52474;52.236;5.114;2024-01-10T07:13:03;9.20;;;4.65;;
59169;SDS011;52474;52.236;5.114;2024-01-10T07:15:30;11.25;;;5.38;;
59169;SDS011;52474;52.236;5.114;2024-01-10T07:17:56;5.85;;;4.55;;
59169;SDS011;52474;52.236;5.114;2024-01-10T07:20:21;9.63;;;4.85;;
59169;SDS011;52474;52.236;5.114;2024-01-10T07:22:49;7.43;;;4.63;;
59169;SDS011;52474;52.236;5.114;2024-01-10T07:25:16;9.98;;;4.88;;
59169;SDS011;52474;52.236;5.114;2024-01-10T07:27:43;9.15;;;4.93;;
59169;SDS011;52474;52.236;5.114;2024-01-10T07:30:09;9.63;;;5.57;;
59169;SDS011;52474;52.236;5.114;2024-01-10T07:32:44;10.10;;;5.45;;
59169;SDS011;52474;52.236;5.114;2024-01-10T07:35:12;12.93;;;5.50;;
59169;SDS011;52474;52.236;5.114;2024-01-10T07:37:41;8.10;;;4.47;;
59169;SDS011;52474;52.236;5.114;2024-01-10T07:40:10;6.30;;;4.05;;
59169;SDS011;52474;52.236;5.114;2024-01-10T07:42:36;7.68;;;4.13;;
59169;SDS011;52474;52.236;5.114;2024-01-10T07:45:03;8.95;;;4.10;;
59169;SDS011;52474;52.236;5.114;2024-01-10T07:47:33;8.73;;;5.38;;
59169;SDS011;52474;52.236;5.114;2024-01-10T07:50:11;8.18;;;4.70;;
59169;SDS011;52474;52.236;5.114;2024-01-10T07:52:39;8.15;;;4.90;;
59169;SDS011;52474;52.236;5.114;2024-01-10T07:55:06;10.00;;;5.15;;
59169;SDS011;52474;52.236;5.114;2024-01-10T07:57:33;9.30;;;5.20;;
59169;SDS011;52474;52.236;5.114;2024-01-10T08:00:02;9.75;;;5.47;;
59169;SDS011;52474;52.236;5.114;2024-01-10T08:02:34;12.48;;;4.70;;
59169;SDS011;52474;52.236;5.114;2024-01-10T08:05:00;7.93;;;4.65;;
59169;SDS011;52474;52.236;5.114;2024-01-10T08:07:30;11.25;;;5.53;;
59169;SDS011;52474;52.236;5.114;2024-01-10T08:09:59;9.05;;;4.90;;
59169;SDS011;52474;52.236;5.114;2024-01-10T08:12:25;8.98;;;4.55;;
59169;SDS011;52474;52.236;5.114;2024-01-10T08:14:50;9.93;;;4.60;;
59169;SDS011;52474;52.236;5.114;2024-01-10T08:17:16;12.35;;;5.25;;
59169;SDS011;52474;52.236;5.114;2024-01-10T08:19:42;8.02;;;4.00;;
59169;SDS011;52474;52.236;5.114;2024-01-10T08:22:07;7.53;;;5.00;;
59169;SDS011;52474;52.236;5.114;2024-01-10T08:24:33;11.18;;;4.28;;
59169;SDS011;52474;52.236;5.114;2024-01-10T08:26:59;9.75;;;4.60;;
59169;SDS011;52474;52.236;5.114;2024-01-10T08:29:25;10.00;;;5.68;;
59169;SDS011;52474;52.236;5.114;2024-01-10T08:31:55;9.63;;;4.53;;
59169;SDS011;52474;52.236;5.114;2024-01-10T08:34:22;7.95;;;4.38;;
59169;SDS011;52474;52.236;5.114;2024-01-10T08:36:47;7.55;;;4.32;;
59169;SDS011;52474;52.236;5.114;2024-01-10T08:39:16;10.23;;;3.70;;
59169;SDS011;52474;52.236;5.114;2024-01-10T08:41:42;8.82;;;4.85;;
59169;SDS011;52474;52.236;5.114;2024-01-10T08:44:12;8.93;;;4.22;;
59169;SDS011;52474;52.236;5.114;2024-01-10T08:46:38;12.95;;;4.75;;
59169;SDS011;52474;52.236;5.114;2024-01-10T08:49:04;6.47;;;3.85;;
59169;SDS011;52474;52.236;5.114;2024-01-10T08:51:30;8.05;;;4.30;;
59169;SDS011;52474;52.236;5.114;2024-01-10T08:53:56;9.50;;;4.50;;
59169;SDS011;52474;52.236;5.114;2024-01-10T08:56:22;9.15;;;3.95;;
59169;SDS011;52474;52.236;5.114;2024-01-10T08:58:48;8.80;;;4.20;;
59169;SDS011;52474;52.236;5.114;2024-01-10T09:01:13;8.00;;;4.50;;
59169;SDS011;52474;52.236;5.114;2024-01-10T09:03:39;7.47;;;4.57;;
59169;SDS011;52474;52.236;5.114;2024-01-10T09:06:05;8.32;;;4.63;;
59169;SDS011;52474;52.236;5.114;2024-01-10T09:08:33;8.45;;;4.07;;
59169;SDS011;52474;52.236;5.114;2024-01-10T09:11:02;8.35;;;4.32;;
59169;SDS011;52474;52.236;5.114;2024-01-10T09:13:28;5.57;;;3.30;;
59169;SDS011;52474;52.236;5.114;2024-01-10T09:15:54;8.75;;;4.57;;
59169;SDS011;52474;52.236;5.114;2024-01-10T09:18:20;10.68;;;4.65;;
59169;SDS011;52474;52.236;5.114;2024-01-10T09:20:46;9.63;;;4.13;;
59169;SDS011;52474;52.236;5.114;2024-01-10T09:23:13;9.52;;;4.22;;
59169;SDS011;52474;52.236;5.114;2024-01-10T09:25:39;8.55;;;3.97;;
59169;SDS011;52474;52.236;5.114;2024-01-10T09:28:05;6.93;;;4.13;;
59169;SDS011;52474;52.236;5.114;2024-01-10T09:30:31;9.20;;;4.85;;
59169;SDS011;52474;52.236;5.114;2024-01-10T09:32:57;7.65;;;3.58;;
59169;SDS011;52474;52.236;5.114;2024-01-10T09:35:24;10.27;;;4.57;;
59169;SDS011;52474;52.236;5.114;2024-01-10T09:37:50;9.40;;;4.43;;
59169;SDS011;52474;52.236;5.114;2024-01-10T09:40:16;8.70;;;4.93;;
59169;SDS011;52474;52.236;5.114;2024-01-10T09:42:44;8.50;;;4.03;;
59169;SDS011;52474;52.236;5.114;2024-01-10T09:45:14;6.93;;;4.18;;
59169;SDS011;52474;52.236;5.114;2024-01-10T09:47:43;7.55;;;4.20;;
59169;SDS011;52474;52.236;5.114;2024-01-10T09:50:14;8.00;;;3.67;;
59169;SDS011;52474;52.236;5.114;2024-01-10T09:52:42;4.65;;;3.08;;
59169;SDS011;52474;52.236;5.114;2024-01-10T09:55:15;10.00;;;5.18;;
59169;SDS011;52474;52.236;5.114;2024-01-10T09:57:42;7.30;;;4.30;;
59169;SDS011;52474;52.236;5.114;2024-01-10T10:00:09;5.88;;;4.53;;
59169;SDS011;52474;52.236;5.114;2024-01-10T10:02:37;7.85;;;4.50;;
59169;SDS011;52474;52.236;5.114;2024-01-10T10:05:15;8.10;;;3.80;;
59169;SDS011;52474;52.236;5.114;2024-01-10T10:07:45;8.88;;;4.60;;
59169;SDS011;52474;52.236;5.114;2024-01-10T10:10:16;7.85;;;4.13;;
59169;SDS011;52474;52.236;5.114;2024-01-10T10:12:45;9.35;;;4.85;;
59169;SDS011;52474;52.236;5.114;2024-01-10T10:15:13;9.65;;;4.65;;
59169;SDS011;52474;52.236;5.114;2024-01-10T10:17:40;11.05;;;4.03;;
59169;SDS011;52474;52.236;5.114;2024-01-10T10:20:13;10.35;;;4.38;;
59169;SDS011;52474;52.236;5.114;2024-01-10T10:22:39;8.73;;;4.18;;
59169;SDS011;52474;52.236;5.114;2024-01-10T10:25:07;9.80;;;4.60;;
59169;SDS011;52474;52.236;5.114;2024-01-10T10:27:35;9.20;;;4.03;;
59169;SDS011;52474;52.236;5.114;2024-01-10T10:30:01;7.68;;;4.50;;
59169;SDS011;52474;52.236;5.114;2024-01-10T10:32:27;10.75;;;4.50;;
59169;SDS011;52474;52.236;5.114;2024-01-10T10:34:55;9.27;;;4.75;;
59169;SDS011;52474;52.236;5.114;2024-01-10T10:37:21;10.98;;;5.30;;
59169;SDS011;52474;52.236;5.114;2024-01-10T10:39:47;7.53;;;4.05;;
59169;SDS011;52474;52.236;5.114;2024-01-10T10:42:13;8.20;;;4.88;;
59169;SDS011;52474;52.236;5.114;2024-01-10T10:44:41;8.68;;;5.03;;
59169;SDS011;52474;52.236;5.114;2024-01-10T10:47:08;9.52;;;4.63;;
59169;SDS011;52474;52.236;5.114;2024-01-10T10:49:36;8.30;;;4.95;;
59169;SDS011;52474;52.236;5.114;2024-01-10T10:52:12;8.40;;;4.82;;
59169;SDS011;52474;52.236;5.114;2024-01-10T10:54:38;10.75;;;5.68;;
59169;SDS011;52474;52.236;5.114;2024-01-10T10:57:04;7.63;;;5.13;;
59169;SDS011;52474;52.236;5.114;2024-01-10T10:59:31;11.13;;;5.80;;
59169;SDS011;52474;52.236;5.114;2024-01-10T11:02:01;9.00;;;4.88;;
59169;SDS011;52474;52.236;5.114;2024-01-10T11:04:27;10.43;;;5.60;;
59169;SDS011;52474;52.236;5.114;2024-01-10T11:06:54;11.38;;;5.90;;
59169;SDS011;52474;52.236;5.114;2024-01-10T11:09:20;10.38;;;5.75;;
59169;SDS011;52474;52.236;5.114;2024-01-10T11:12:11;12.10;;;5.82;;
59169;SDS011;52474;52.236;5.114;2024-01-10T11:15:53;9.80;;;6.18;;
59169;SDS011;52474;52.236;5.114;2024-01-10T11:17:51;9.25;;;6.03;;
59169;SDS011;52474;52.236;5.114;2024-01-10T11:20:55;9.57;;;6.10;;
59169;SDS011;52474;52.236;5.114;2024-01-10T11:26:16;9.70;;;5.80;;
59169;SDS011;52474;52.236;5.114;2024-01-10T11:28:43;10.57;;;6.07;;
59169;SDS011;52474;52.236;5.114;2024-01-10T11:31:09;10.00;;;6.72;;
59169;SDS011;52474;52.236;5.114;2024-01-10T11:33:36;9.38;;;6.30;;
59169;SDS011;52474;52.236;5.114;2024-01-10T11:38:38;11.23;;;6.43;;
59169;SDS011;52474;52.236;5.114;2024-01-10T11:41:19;9.27;;;6.18;;
59169;SDS011;52474;52.236;5.114;2024-01-10T11:46:47;13.05;;;6.32;;
59169;SDS011;52474;52.236;5.114;2024-01-10T11:49:13;9.43;;;5.70;;
59169;SDS011;52474;52.236;5.114;2024-01-10T11:51:47;13.93;;;6.63;;
59169;SDS011;52474;52.236;5.114;2024-01-10T11:57:07;9.15;;;5.70;;
59169;SDS011;52474;52.236;5.114;2024-01-10T11:59:40;11.73;;;6.28;;
59169;SDS011;52474;52.236;5.114;2024-01-10T12:02:08;15.75;;;6.57;;
59169;SDS011;52474;52.236;5.114;2024-01-10T12:04:34;9.73;;;6.20;;
59169;SDS011;52474;52.236;5.114;2024-01-10T12:07:02;12.85;;;6.72;;
59169;SDS011;52474;52.236;5.114;2024-01-10T12:09:29;16.77;;;6.45;;
59169;SDS011;52474;52.236;5.114;2024-01-10T12:11:55;11.98;;;6.90;;
59169;SDS011;52474;52.236;5.114;2024-01-10T12:14:21;13.25;;;6.72;;
59169;SDS011;52474;52.236;5.114;2024-01-10T12:16:47;62.92;;;9.98;;
59169;SDS011;52474;52.236;5.114;2024-01-10T12:19:13;14.68;;;7.10;;
59169;SDS011;52474;52.236;5.114;2024-01-10T12:21:38;12.75;;;6.07;;
59169;SDS011;52474;52.236;5.114;2024-01-10T12:24:07;13.52;;;6.70;;
59169;SDS011;52474;52.236;5.114;2024-01-10T12:26:33;10.18;;;6.10;;
59169;SDS011;52474;52.236;5.114;2024-01-10T12:28:59;14.63;;;7.13;;
59169;SDS011;52474;52.236;5.114;2024-01-10T12:31:28;13.10;;;7.03;;
59169;SDS011;52474;52.236;5.114;2024-01-10T12:33:54;12.98;;;6.38;;
59169;SDS011;52474;52.236;5.114;2024-01-10T12:36:20;11.50;;;6.15;;
59169;SDS011;52474;52.236;5.114;2024-01-10T12:38:46;9.90;;;5.47;;
59169;SDS011;52474;52.236;5.114;2024-01-10T12:41:14;10.77;;;6.40;;
59169;SDS011;52474;52.236;5.114;2024-01-10T12:43:40;10.60;;;6.00;;
59169;SDS011;52474;52.236;5.114;2024-01-10T12:46:06;11.38;;;6.20;;
59169;SDS011;52474;52.236;5.114;2024-01-10T12:48:34;9.77;;;5.47;;
59169;SDS011;52474;52.236;5.114;2024-01-10T12:51:03;11.27;;;6.15;;
59169;SDS011;52474;52.236;5.114;2024-01-10T12:53:50;10.40;;;5.75;;
59169;SDS011;52474;52.236;5.114;2024-01-10T12:56:17;10.18;;;5.63;;
59169;SDS011;52474;52.236;5.114;2024-01-10T12:58:43;11.15;;;4.90;;
59169;SDS011;52474;52.236;5.114;2024-01-10T13:01:09;11.63;;;6.13;;
59169;SDS011;52474;52.236;5.114;2024-01-10T13:03:35;8.98;;;4.90;;
59169;SDS011;52474;52.236;5.114;2024-01-10T13:06:01;11.80;;;6.38;;
59169;SDS011;52474;52.236;5.114;2024-01-10T13:08:26;10.27;;;5.13;;
59169;SDS011;52474;52.236;5.114;2024-01-10T13:10:52;9.43;;;5.75;;
59169;SDS011;52474;52.236;5.114;2024-01-10T13:13:19;9.70;;;5.88;;
59169;SDS011;52474;52.236;5.114;2024-01-10T13:15:49;10.40;;;6.10;;
59169;SDS011;52474;52.236;5.114;2024-01-10T13:18:15;8.38;;;5.32;;
59169;SDS011;52474;52.236;5.114;2024-01-10T13:20:41;9.00;;;4.88;;
59169;SDS011;52474;52.236;5.114;2024-01-10T13:23:08;12.02;;;6.22;;
59169;SDS011;52474;52.236;5.114;2024-01-10T13:25:34;9.95;;;5.75;;
59169;SDS011;52474;52.236;5.114;2024-01-10T13:28:00;8.23;;;5.85;;
59169;SDS011;52474;52.236;5.114;2024-01-10T13:30:26;9.70;;;5.25;;
59169;SDS011;52474;52.236;5.114;2024-01-10T13:32:52;8.85;;;4.88;;
59169;SDS011;52474;52.236;5.114;2024-01-10T13:35:18;8.95;;;5.30;;
59169;SDS011;52474;52.236;5.114;2024-01-10T13:37:47;9.85;;;5.60;;
59169;SDS011;52474;52.236;5.114;2024-01-10T13:40:12;9.38;;;5.55;;
59169;SDS011;52474;52.236;5.114;2024-01-10T13:42:38;9.90;;;4.90;;
59169;SDS011;52474;52.236;5.114;2024-01-10T13:45:05;9.35;;;5.40;;
59169;SDS011;52474;52.236;5.114;2024-01-10T13:47:32;10.82;;;6.00;;
59169;SDS011;52474;52.236;5.114;2024-01-10T13:50:00;10.18;;;6.05;;
59169;SDS011;52474;52.236;5.114;2024-01-10T13:52:28;7.82;;;4.63;;
59169;SDS011;52474;52.236;5.114;2024-01-10T13:54:54;12.55;;;5.82;;
59169;SDS011;52474;52.236;5.114;2024-01-10T13:57:19;12.98;;;5.57;;
59169;SDS011;52474;52.236;5.114;2024-01-10T13:59:45;8.27;;;5.18;;
59169;SDS011;52474;52.236;5.114;2024-01-10T14:02:12;9.68;;;5.47;;
59169;SDS011;52474;52.236;5.114;2024-01-10T14:04:38;8.68;;;5.03;;
59169;SDS011;52474;52.236;5.114;2024-01-10T14:07:03;9.50;;;5.20;;
59169;SDS011;52474;52.236;5.114;2024-01-10T14:09:32;9.80;;;4.85;;
59169;SDS011;52474;52.236;5.114;2024-01-10T14:11:57;11.60;;;5.25;;
59169;SDS011;52474;52.236;5.114;2024-01-10T14:14:23;10.20;;;6.00;;
59169;SDS011;52474;52.236;5.114;2024-01-10T14:16:49;10.27;;;5.47;;
59169;SDS011;52474;52.236;5.114;2024-01-10T14:19:15;9.48;;;5.20;;
59169;SDS011;52474;52.236;5.114;2024-01-10T14:21:44;11.85;;;6.75;;
59169;SDS011;52474;52.236;5.114;2024-01-10T14:24:11;10.68;;;5.85;;
59169;SDS011;52474;52.236;5.114;2024-01-10T14:26:37;11.30;;;5.18;;
59169;SDS011;52474;52.236;5.114;2024-01-10T14:29:02;10.38;;;5.32;;
59169;SDS011;52474;52.236;5.114;2024-01-10T14:31:28;10.35;;;5.53;;
59169;SDS011;52474;52.236;5.114;2024-01-10T14:33:54;10.70;;;5.03;;
59169;SDS011;52474;52.236;5.114;2024-01-10T14:36:20;10.52;;;5.47;;
59169;SDS011;52474;52.236;5.114;2024-01-10T14:38:46;7.65;;;4.82;;
59169;SDS011;52474;52.236;5.114;2024-01-10T14:41:12;10.13;;;5.75;;
59169;SDS011;52474;52.236;5.114;2024-01-10T14:43:37;10.20;;;5.05;;
59169;SDS011;52474;52.236;5.114;2024-01-10T14:46:03;9.50;;;5.32;;
59169;SDS011;52474;52.236;5.114;2024-01-10T14:48:31;9.05;;;6.00;;
59169;SDS011;52474;52.236;5.114;2024-01-10T14:51:00;10.15;;;5.53;;
59169;SDS011;52474;52.236;5.114;2024-01-10T14:53:26;8.80;;;5.55;;
59169;SDS011;52474;52.236;5.114;2024-01-10T14:55:52;10.63;;;5.70;;